createdAt,value
2023-05-18T00:02:44.670Z,3.70
2023-05-18T00:06:47.611Z,3.63
2023-05-18T00:10:49.207Z,3.42
2023-05-18T00:14:50.785Z,3.46
2023-05-18T00:18:52.378Z,3.25
2023-05-18T00:22:55.320Z,3.30
2023-05-18T00:26:56.884Z,3.14
2023-05-18T00:30:58.447Z,3.11
2023-05-18T00:35:00.110Z,3.06
2023-05-18T00:39:03.982Z,2.95
2023-05-18T00:43:05.534Z,2.86
2023-05-18T00:47:07.130Z,2.86
2023-05-18T00:51:08.876Z,2.81
2023-05-18T00:55:12.424Z,2.75
2023-05-18T00:59:14.229Z,2.71
2023-05-18T01:03:15.965Z,2.67
2023-05-18T01:07:17.574Z,2.58
2023-05-18T01:11:26.912Z,2.54
2023-05-18T01:15:32.597Z,2.48
2023-05-18T01:20:05.629Z,2.37
2023-05-18T01:24:23.439Z,2.32
2023-05-18T01:28:32.166Z,2.29
2023-05-18T01:32:39.823Z,2.10
2023-05-18T01:36:41.629Z,2.11
2023-05-18T01:40:52.015Z,2.08
2023-05-18T01:45:02.455Z,2.07
2023-05-18T01:49:12.963Z,1.98
2023-05-18T01:53:23.384Z,1.89
2023-05-18T01:57:27.862Z,1.88
2023-05-18T02:01:30.890Z,1.94
2023-05-18T02:05:32.437Z,1.80
2023-05-18T02:09:34.225Z,1.72
2023-05-18T02:13:35.830Z,1.73
2023-05-18T02:17:38.829Z,1.72
2023-05-18T02:21:40.308Z,1.63
2023-05-18T02:25:41.866Z,1.69
2023-05-18T02:29:43.419Z,1.66
2023-05-18T02:33:46.308Z,1.47
2023-05-18T02:37:47.875Z,1.51
2023-05-18T02:41:49.442Z,1.49
2023-05-18T02:45:51.049Z,1.46
2023-05-18T02:49:54.049Z,1.46
2023-05-18T02:53:55.489Z,1.38
2023-05-18T02:57:57.485Z,1.38
2023-05-18T03:01:59.154Z,1.36
2023-05-18T03:06:02.121Z,1.38
2023-05-18T03:10:04.062Z,1.47
2023-05-18T03:14:05.620Z,1.55
2023-05-18T03:18:07.352Z,1.62
2023-05-18T03:22:10.322Z,1.43
2023-05-18T03:26:11.916Z,1.36
2023-05-18T03:30:13.714Z,1.24
2023-05-18T03:34:15.288Z,1.26
2023-05-18T03:38:18.198Z,1.39
2023-05-18T03:42:19.765Z,1.69
2023-05-18T03:46:21.278Z,1.58
2023-05-18T03:50:23.063Z,1.33
2023-05-18T03:54:26.017Z,1.27
2023-05-18T03:58:27.410Z,1.24
2023-05-18T04:02:29.060Z,1.24
2023-05-18T04:06:30.726Z,1.30
2023-05-18T04:10:33.635Z,1.34
2023-05-18T04:14:35.390Z,1.45
2023-05-18T04:18:36.991Z,1.49
2023-05-18T04:22:42.671Z,1.53
2023-05-18T04:26:45.570Z,1.73
2023-05-18T04:30:47.138Z,1.79
2023-05-18T04:34:48.696Z,2.20
2023-05-18T04:38:50.263Z,2.66
2023-05-18T04:42:53.236Z,2.60
2023-05-18T04:46:55.379Z,2.80
2023-05-18T04:50:56.932Z,3.10
2023-05-18T04:54:58.539Z,3.70
2023-05-18T04:59:01.457Z,3.58
2023-05-18T05:03:03.110Z,3.41
2023-05-18T05:07:05.109Z,3.76
2023-05-18T05:11:06.663Z,4.05
2023-05-18T05:15:10.281Z,4.39
2023-05-18T05:19:11.868Z,5.68
2023-05-18T05:23:13.536Z,6.85
2023-05-18T05:27:15.124Z,8.82
2023-05-18T05:31:18.022Z,9.72
2023-05-18T05:35:19.565Z,10.03
2023-05-18T05:39:21.117Z,10.30
2023-05-18T05:43:22.724Z,10.69
2023-05-18T05:47:26.134Z,10.82
2023-05-18T05:51:27.713Z,12.23
2023-05-18T05:55:29.512Z,11.77
2023-05-18T05:59:31.211Z,14.07
2023-05-18T06:03:35.945Z,11.84
2023-05-18T06:07:37.793Z,11.17
2023-05-18T06:11:39.508Z,11.44
2023-05-18T06:15:41.032Z,10.58
2023-05-18T06:19:43.913Z,11.66
2023-05-18T06:23:45.456Z,11.83
2023-05-18T06:27:46.978Z,12.82
2023-05-18T06:31:48.633Z,11.60
2023-05-18T06:35:51.710Z,12.41
2023-05-18T06:39:53.285Z,12.16
2023-05-18T06:43:54.824Z,12.72
2023-05-18T06:47:56.466Z,13.63
2023-05-18T06:51:59.431Z,13.20
2023-05-18T06:56:00.969Z,12.98
2023-05-18T07:00:02.552Z,13.26
2023-05-18T07:04:04.578Z,13.59
2023-05-18T07:08:07.684Z,14.46
2023-05-18T07:12:09.223Z,14.34
2023-05-18T07:16:11.444Z,14.45
2023-05-18T07:20:13.062Z,14.68
2023-05-18T07:24:16.016Z,15.37
2023-05-18T07:28:17.660Z,15.17
2023-05-18T07:32:19.422Z,15.89
2023-05-18T07:36:20.933Z,18.10
2023-05-18T07:40:23.933Z,16.42
2023-05-18T07:44:25.593Z,15.41
2023-05-18T07:48:27.148Z,14.77
2023-05-18T07:52:28.753Z,16.61
2023-05-18T07:56:31.644Z,17.89
2023-05-18T08:00:34.124Z,17.64
2023-05-18T08:04:35.694Z,16.10
2023-05-18T08:08:37.290Z,16.70
2023-05-18T08:12:40.213Z,16.52
2023-05-18T08:16:41.820Z,17.51
2023-05-18T08:20:43.366Z,17.86
2023-05-18T08:24:45.121Z,17.02
2023-05-18T08:28:48.113Z,16.64
2023-05-18T08:32:49.702Z,16.82
2023-05-18T08:36:51.279Z,16.00
2023-05-18T08:41:01.401Z,16.55
2023-05-18T08:45:11.258Z,16.60
2023-05-18T08:49:13.556Z,17.84
2023-05-18T08:53:18.374Z,16.38
2023-05-18T08:57:22.359Z,18.48
2023-05-18T09:01:26.571Z,17.00
2023-05-18T09:05:28.252Z,17.11
2023-05-18T09:09:30.996Z,16.86
2023-05-18T09:13:32.549Z,16.33
2023-05-18T09:17:35.464Z,15.64
2023-05-18T09:21:37.010Z,15.26
2023-05-18T09:25:43.266Z,15.41
2023-05-18T09:29:52.720Z,15.06
2023-05-18T09:33:59.050Z,15.49
2023-05-18T09:38:03.566Z,15.16
2023-05-18T09:42:05.773Z,15.17
2023-05-18T09:46:08.468Z,15.14
2023-05-18T09:50:11.602Z,15.20
2023-05-18T09:54:13.013Z,15.61
2023-05-18T09:58:14.716Z,15.70
2023-05-18T10:02:18.784Z,15.45
2023-05-18T10:06:27.277Z,16.03
2023-05-18T10:10:29.290Z,14.66
2023-05-18T10:14:32.819Z,14.79
2023-05-18T10:18:37.053Z,15.04
2023-05-18T10:22:41.106Z,15.15
2023-05-18T10:26:44.923Z,15.06
2023-05-18T10:30:47.640Z,15.20
2023-05-18T10:34:51.176Z,15.26
2023-05-18T10:38:54.594Z,15.16
2023-05-18T10:42:57.401Z,14.74
2023-05-18T10:46:59.157Z,14.79
2023-05-18T10:51:00.952Z,14.51
2023-05-18T10:55:04.694Z,14.44
2023-05-18T10:59:07.321Z,14.91
2023-05-18T11:03:11.832Z,15.19
2023-05-18T11:07:13.952Z,14.39
2023-05-18T11:11:19.457Z,14.54
2023-05-18T11:15:21.280Z,14.82
2023-05-18T11:19:25.122Z,14.48
2023-05-18T11:23:30.886Z,14.36
2023-05-18T11:27:34.110Z,14.44
2023-05-18T11:31:45.309Z,15.09
2023-05-18T11:36:04.175Z,14.68
2023-05-18T11:40:11.264Z,14.42
2023-05-18T11:44:20.155Z,14.53
2023-05-18T11:48:23.014Z,14.77
2023-05-18T11:52:25.671Z,14.17
2023-05-18T11:56:31.653Z,14.50
2023-05-18T12:00:35.952Z,14.62
2023-05-18T12:04:43.379Z,14.67
2023-05-18T12:08:45.376Z,15.32
2023-05-18T12:12:47.870Z,15.42
2023-05-18T12:16:51.063Z,15.27
2023-05-18T12:20:53.155Z,15.11
2023-05-18T12:24:54.701Z,15.18
2023-05-18T12:28:56.589Z,15.08
2023-05-18T12:33:00.247Z,15.42
2023-05-18T12:37:02.234Z,15.70
2023-05-18T12:41:03.834Z,15.37
2023-05-18T12:45:07.011Z,15.40
2023-05-18T12:49:11.115Z,15.27
2023-05-18T12:53:13.335Z,15.57
2023-05-18T12:57:14.918Z,15.46
2023-05-18T13:01:16.525Z,15.56
2023-05-18T13:05:24.448Z,15.42
2023-05-18T13:09:26.041Z,15.58
2023-05-18T13:13:27.668Z,15.48
2023-05-18T13:17:29.337Z,15.35
2023-05-18T13:21:32.677Z,15.91
2023-05-18T13:25:34.293Z,15.84
2023-05-18T13:29:35.835Z,15.72
2023-05-18T13:33:37.412Z,16.25
2023-05-18T13:37:40.340Z,15.95
2023-05-18T13:41:41.894Z,14.83
2023-05-18T13:45:43.645Z,15.00
2023-05-18T13:49:45.316Z,15.78
2023-05-18T13:53:48.212Z,16.22
2023-05-18T13:57:49.821Z,16.27
2023-05-18T14:01:51.392Z,15.84
2023-05-18T14:05:52.955Z,15.40
2023-05-18T14:09:55.914Z,15.84
2023-05-18T14:13:57.468Z,16.27
2023-05-18T14:17:59.063Z,15.59
2023-05-18T14:22:00.726Z,15.96
2023-05-18T14:26:03.666Z,15.45
2023-05-18T14:30:06.632Z,15.63
2023-05-18T14:34:08.329Z,15.78
2023-05-18T14:38:09.900Z,15.91
2023-05-18T14:42:13.071Z,16.32
2023-05-18T14:46:14.575Z,16.49
2023-05-18T14:50:16.152Z,16.30
2023-05-18T14:54:17.732Z,16.13
2023-05-18T14:58:21.060Z,15.90
2023-05-18T15:02:22.828Z,15.99
2023-05-18T15:06:24.977Z,15.79
2023-05-18T15:10:26.811Z,16.24
2023-05-18T15:14:29.756Z,16.60
2023-05-18T15:18:31.326Z,16.35
2023-05-18T15:22:32.918Z,15.82
2023-05-18T15:26:34.565Z,15.55
2023-05-18T15:30:37.593Z,15.79
2023-05-18T15:34:39.238Z,15.68
2023-05-18T15:38:41.875Z,15.85
2023-05-18T15:42:43.591Z,15.83
2023-05-18T15:46:46.561Z,16.07
2023-05-18T15:50:48.128Z,15.99
2023-05-18T15:54:49.729Z,15.60
2023-05-18T15:58:51.371Z,15.65
2023-05-18T16:02:54.343Z,15.30
2023-05-18T16:06:55.870Z,15.52
2023-05-18T16:10:57.428Z,15.50
2023-05-18T16:14:58.988Z,15.47
2023-05-18T16:19:01.973Z,15.48
2023-05-18T16:23:03.619Z,15.94
2023-05-18T16:27:05.594Z,15.50
2023-05-18T16:31:07.231Z,15.09
2023-05-18T16:35:10.468Z,15.22
2023-05-18T16:39:12.065Z,15.20
2023-05-18T16:43:13.626Z,15.13
2023-05-18T16:47:15.212Z,14.99
2023-05-18T16:51:18.134Z,14.79
2023-05-18T16:55:19.719Z,15.09
2023-05-18T16:59:21.312Z,15.29
2023-05-18T17:03:22.958Z,15.43
2023-05-18T17:07:25.924Z,15.05
2023-05-18T17:11:27.714Z,15.18
2023-05-18T17:15:29.808Z,14.83
2023-05-18T17:19:32.156Z,14.72
2023-05-18T17:23:35.084Z,14.45
2023-05-18T17:27:36.633Z,14.30
2023-05-18T17:31:38.289Z,14.31
2023-05-18T17:35:40.112Z,14.15
2023-05-18T17:39:43.045Z,14.23
2023-05-18T17:43:44.601Z,14.14
2023-05-18T17:47:46.227Z,14.02
2023-05-18T17:51:47.872Z,14.04
2023-05-18T17:55:50.855Z,14.17
2023-05-18T17:59:52.417Z,13.92
2023-05-18T18:03:54.208Z,14.04
2023-05-18T18:07:55.898Z,13.95
2023-05-18T18:11:58.825Z,13.64
2023-05-18T18:16:00.409Z,13.53
2023-05-18T18:20:02.087Z,13.38
2023-05-18T18:24:04.217Z,13.44
2023-05-18T18:28:07.126Z,13.23
2023-05-18T18:32:08.769Z,13.22
2023-05-18T18:36:10.394Z,13.12
2023-05-18T18:40:12.625Z,13.12
2023-05-18T18:44:15.515Z,12.99
2023-05-18T18:48:17.098Z,13.03
2023-05-18T18:52:18.654Z,12.89
2023-05-18T18:56:22.217Z,12.72
2023-05-18T19:00:26.650Z,12.74
2023-05-18T19:04:28.251Z,12.64
2023-05-18T19:08:29.889Z,12.58
2023-05-18T19:12:31.488Z,12.64
2023-05-18T19:16:34.520Z,12.47
2023-05-18T19:20:36.136Z,12.41
2023-05-18T19:24:37.693Z,12.34
2023-05-18T19:28:39.282Z,12.38
2023-05-18T19:32:42.318Z,12.28
2023-05-18T19:36:43.929Z,12.24
2023-05-18T19:40:45.487Z,12.24
2023-05-18T19:44:47.047Z,12.18
2023-05-18T19:48:50.021Z,12.17
2023-05-18T19:52:51.563Z,12.20
2023-05-18T19:56:53.145Z,12.14
2023-05-18T20:00:55.176Z,12.05
2023-05-18T20:04:58.216Z,12.00
2023-05-18T20:09:00.982Z,11.95
2023-05-18T20:13:02.532Z,12.04
2023-05-18T20:17:04.314Z,11.91
2023-05-18T20:21:07.316Z,11.84
2023-05-18T20:25:08.951Z,11.84
2023-05-18T20:29:10.718Z,11.80
2023-05-18T20:33:13.520Z,11.75
2023-05-18T20:37:16.511Z,11.72
2023-05-18T20:41:18.349Z,11.68
2023-05-18T20:45:20.753Z,11.60
2023-05-18T20:49:22.428Z,11.64
2023-05-18T20:53:25.367Z,11.59
2023-05-18T20:57:27.006Z,11.56
2023-05-18T21:01:28.655Z,11.63
2023-05-18T21:05:30.514Z,11.62
2023-05-18T21:09:33.633Z,11.60
2023-05-18T21:13:35.050Z,11.59
2023-05-18T21:17:36.636Z,11.47
2023-05-18T21:21:38.229Z,11.43
2023-05-18T21:25:41.149Z,11.40
2023-05-18T21:29:42.716Z,11.37
2023-05-18T21:33:44.328Z,11.36
2023-05-18T21:37:45.913Z,11.35
2023-05-18T21:41:48.819Z,11.35
2023-05-18T21:45:50.567Z,11.28
2023-05-18T21:49:52.153Z,11.32
2023-05-18T21:53:53.721Z,11.24
2023-05-18T21:57:56.694Z,11.18
2023-05-18T22:01:58.300Z,11.20
2023-05-18T22:05:59.896Z,11.25
2023-05-18T22:10:01.472Z,11.41
2023-05-18T22:14:04.457Z,11.57
2023-05-18T22:18:06.313Z,11.54
2023-05-18T22:22:11.601Z,11.46
2023-05-18T22:26:15.556Z,11.39
2023-05-18T22:30:19.112Z,11.20
2023-05-18T22:34:20.667Z,11.64
2023-05-18T22:38:22.321Z,11.27
2023-05-18T22:42:23.908Z,11.12
2023-05-18T22:46:26.874Z,11.25
2023-05-18T22:50:28.726Z,11.07
2023-05-18T22:54:30.409Z,11.30
2023-05-18T22:58:32.002Z,10.99
2023-05-18T23:02:35.058Z,10.83
2023-05-18T23:06:36.631Z,10.77
2023-05-18T23:10:38.176Z,10.81
2023-05-18T23:14:39.695Z,10.61
2023-05-18T23:18:42.627Z,10.73
2023-05-18T23:22:44.256Z,10.84
2023-05-18T23:26:45.799Z,10.86
2023-05-18T23:30:47.324Z,10.92
2023-05-18T23:34:50.833Z,10.62
2023-05-18T23:38:55.544Z,10.87
2023-05-18T23:42:57.732Z,10.66
2023-05-18T23:47:00.027Z,10.57
2023-05-18T23:51:03.370Z,10.55
2023-05-18T23:55:06.949Z,10.54
2023-05-18T23:59:10.069Z,10.64
